LICT/TPS METAR and TAF weather

Enter ICAO airport designator
Station Type Date Time Source
LICT METAR 2019/08/25 06:55 UTC NOAA

LICT 250655Z VRB01KT 9999 FEW018 27/24 Q1016


Station Type Date Time Source
LICT Decoded METAR 2019/08/25 06:55 UTC NOAA

Station name not available
Aug 25, 2019 - 02:55 AM EDT / 2019.08.25 0655 UTC
Wind: Variable at 1 MPH (1 KT):0
Visibility: greater than 7 mile(s):0
Sky conditions: mostly clear
Temperature: 80 F (27 C)
Dew Point: 75 F (24 C)
Relative Humidity: 83%
Pressure (altimeter): 30.00 in. Hg (1016 hPa)
ob: LICT 250655Z VRB01KT 9999 FEW018 27/24 Q1016
cycle: 7

Station Type Date Time Source
LICT TAF 2019/01/11 09:24 UTC NOAA

TAF TAF LICT 110800Z 1109/1121 33012KT 9999 SCT025

Example: see airport list